Jackson, MS (39201)

12:03 PM CDT on May 23, 2017 (GMT -0500)
Belhaven | | Change Station
Active Advisory: Flood Warning

Elev 318 ft 32.32 °N, 90.16 °W | Updated 10 seconds ago

Overcast
Overcast
71.6 °F
Feels Like 71.6 °F
N
0.0
Wind Variable Wind from NNW
Gusts 0.0 mph

Today
High -- | Low -- °F
--% Chance of Precip.
Yesterday
High -- | Low -- °F
Precip. -- in
Pressure 29.77 in
Visibility 10.0 miles
Clouds Scattered Clouds 1400 ft
Mostly Cloudy 2200 ft
Overcast 3200 ft
Dew Point 68 °F
Humidity 89%
Rainfall 0.43 in
Snow Depth Not available.
5:57 AM 7:57 PM
Waning Crescent, 7% visible
METAR KHKS 231653Z 32007KT 10SM SCT014 BKN022 OVC032 21/18 A2979 RMK AO2 SLP080 T02110183
Pressure 29.77 in
Visibility 10.0 miles
Clouds Scattered Clouds 1400 ft
Mostly Cloudy 2200 ft
Overcast 3200 ft
Dew Point 68 °F
Humidity 89%
Rainfall 0.43 in
Snow Depth Not available.
5:57 AM 7:57 PM
Waning Crescent, 7% visible
METAR KHKS 231653Z 32007KT 10SM SCT014 BKN022 OVC032 21/18 A2979 RMK AO2 SLP080 T02110183

Get Your Daily Forecast Email!

Thanks for signing up!

Be on the lookout for a verification email in your inbox.

You'll start receiving severe weather alerts in your inbox..

×

10-Day Weather Forecast

Almanac

Astronomy

May. 23, 2017 Rise Set
Actual Time
Civil Twilight
Nautical Twilight
Astronomical Twilight
Moon
Length of Visible Light
Length of Day
Tomorrow will be .
, % of the Moon is Illuminated

Today's Extremes

State Highs State Lows

Community

WunderPhotos

Category 6

Welcome to Category 6. This is the collective home for Weather Underground's featured writeups by Dr. Jeff Masters (right), Bob Henson (left), Chris Burt, and other regular contributors.

Nearby

Air Quality

  Air Quality AQ Index Pollutant
Not available.

Snow Depth

Station Depth Elevation

Earthquake Activity

City Distance Mag. Time & Date
Minimum magnitude displayed is 2.5.

Coastal Water Temperatures

Place Temperature

Stations

Nearby Weather Stations

Station Location Temp. Windchill Dew Point Humidity Wind Precip. Elev Updated Type
                   

Watches & Warnings

Flood Warning
Issued: 10:52 AM CDT May. 23, 2017 – National Weather Service

The National Weather Service in Jackson has issued a

* Flood Warning for
the Big Black River near Bovina
* from Wednesday evening to Thursday morning.
* At 10:15 am Tuesday the stage was 22.0 feet.
* Minor flooding is forecast.
* Flood stage is 28.0 feet.
* Forecast... the river is expected to rise to near flood stage
tomorrow evening.
* Impact... at 28.0 feet... low-lying agricultural land near the river
begins to flood.


              Flood observed forecast 6 am crest
location stg stg day time Wed Thu Fri crest time date

Lower Big Black River
Bovina 28 22.0 Tue 10 am 27.4 27.7 26.4 28.0 07 PM 05/24




Lat... Lon 3217 9093 3224 9078 3256 9064 3245 9052
      3218 9065 3204 9102